Latest Weather Observations for Hamilton Island

IDQ60801

Issued at 9:05 pm EST Wednesday 17 September 2014 (issued every 30 minutes, with the page automatically refreshed every 10 minutes)

About weather observations | Map of weather stations | Latest weather observations for QLD | Other Formats
Station Details ID: 033106 Name: HAMILTON ISLAND AIRPORT Lat: -20.37 Lon: 148.95 Height: 58.66 m
Data from the previous 72 hours. | See also: Recent months at Hamilton Island
Date/Time
EST
Temp
°C
App
Temp
°C
Dew
Point
Rel
Hum
%
Delta-T
°C
Wind Press
QNH
hPa
Press
MSL
hPa
Rain
since 9 am
mm
Dir
 
Spd
km/h
Gust
km/h
Spd
kts
Gust
kts
17/09:00pm 21.0 21.6 17.6 81 2.1 NNW 11 13 6 7 1017.1 1016.9 0.0
17/08:30pm 21.3 21.5 17.7 80 2.2 N 13 17 7 9 1017.0 - 0.0
17/08:00pm 21.3 21.7 17.3 78 2.5 N 11 13 6 7 1016.7 - 0.0
17/07:30pm 21.7 21.1 17.5 77 2.6 N 17 22 9 12 1016.3 - 0.0
17/07:00pm 21.7 21.7 17.1 75 2.8 N 13 17 7 9 1016.0 - 0.0
17/06:30pm 21.9 20.7 17.5 76 2.7 NNE 20 26 11 14 1015.6 - 0.0
17/06:00pm 22.3 21.8 17.7 75 2.9 NNE 17 20 9 11 1015.2 1015.0 0.0
17/05:30pm 23.2 23.4 17.6 71 3.5 NNE 13 22 7 12 1015.1 - 0.0
17/05:00pm 24.4 25.2 18.1 68 4.0 NNE 11 13 6 7 1014.9 - 0.0
17/04:30pm 25.3 25.3 18.0 64 4.6 NW 15 20 8 11 1014.7 - 0.0
17/04:00pm 24.9 23.8 17.4 63 4.7 NNW 19 22 10 12 1014.4 - 0.0
17/03:30pm 25.8 24.4 18.7 65 4.5 NE 24 35 13 19 1014.4 - 0.0
17/03:00pm 24.9 23.3 18.3 66 4.2 ENE 24 32 13 17 1014.6 1014.4 0.0
17/02:30pm 23.9 22.9 17.9 69 3.8 E 20 24 11 13 1015.2 - 0.0
17/02:00pm 24.2 23.0 18.4 70 3.7 ESE 22 26 12 14 1015.5 - 0.0
17/01:30pm 24.5 23.7 18.4 69 3.9 ESE 20 24 11 13 1015.7 - 0.0
17/01:00pm 24.2 23.6 18.4 70 3.7 ESE 19 22 10 12 1016.0 - 0.0
17/12:30pm 24.1 23.4 18.3 70 3.7 ESE 19 30 10 16 1016.4 - 0.0
17/12:00pm 26.4 24.3 12.5 42 8.1 NNW 15 19 8 10 1016.5 1016.3 0.0
17/11:30am 25.1 23.2 15.1 53 6.0 NNW 19 20 10 11 1016.7 - 0.0
17/11:00am 24.3 23.0 13.8 52 6.2 WNW 13 17 7 9 1017.0 - 0.0
17/10:30am 24.2 23.4 17.2 65 4.3 NNW 17 20 9 11 1017.2 - 0.0
17/10:00am 23.7 22.6 17.4 68 3.9 NW 19 24 10 13 1017.6 - 0.0
17/09:30am 22.8 22.0 17.0 70 3.6 NNW 17 24 9 13 1017.9 - 0.0
17/09:00am 22.4 22.7 17.8 75 2.9 NNW 13 17 7 9 1017.9 1017.7 0.2
17/08:30am 21.7 22.4 17.9 79 2.4 NNW 11 15 6 8 1017.8 - 0.2
17/08:00am 20.7 22.2 17.5 82 2.0 NW 6 9 3 5 1017.5 - 0.2
17/07:30am 20.0 22.3 17.6 86 1.5 WNW 2 6 1 3 1017.3 - 0.0
17/07:00am 19.1 20.3 17.4 90 1.0 NNW 7 7 4 4 1017.2 - 0.0
17/06:30am 18.7 20.0 17.5 93 0.7 NW 7 9 4 5 1016.9 - 0.0
17/06:00am 18.7 20.0 17.5 93 0.7 NW 7 9 4 5 1016.5 1016.3 0.0
17/05:30am 18.8 20.1 17.6 93 0.7 NNW 7 11 4 6 1016.4 - 0.0
17/05:00am 18.8 20.1 17.5 92 0.8 NW 7 9 4 5 1016.1 - 0.0
17/04:30am 18.8 20.0 17.3 91 0.9 WNW 7 9 4 5 1015.9 - 0.0
17/04:00am 18.6 19.1 17.4 93 0.7 NW 11 13 6 7 1015.8 - 0.0
17/03:30am 18.7 20.0 17.5 93 0.7 NW 7 9 4 5 1015.7 - 0.0
17/03:00am 18.6 19.8 17.3 92 0.8 NW 7 9 4 5 1015.8 1015.6 0.0
17/02:30am 18.9 20.1 17.4 91 0.9 NW 7 9 4 5 1016.3 - 0.0
17/02:00am 18.9 19.8 17.6 92 0.8 NW 9 11 5 6 1016.4 - 0.0
17/01:30am 18.9 20.2 17.6 92 0.8 NNW 7 9 4 5 1016.8 - 0.0
17/01:00am 19.0 20.5 17.5 91 0.9 NNE 6 7 3 4 1016.9 - 0.0
17/12:30am 19.1 20.4 17.2 89 1.2 N 6 7 3 4 1017.0 - 0.0
17/12:00am 19.2 20.5 17.0 87 1.3 N 6 7 3 4 1017.2 1017.0 0.0
 
Date/Time
EST
Temp
°C
App
Temp
°C
Dew
Point
Rel
Hum
%
Delta-T
°C
Wind Press
QNH
hPa
Press
MSL
hPa
Rain
since 9 am
mm
Dir
 
Spd
km/h
Gust
km/h
Spd
kts
Gust
kts
16/11:30pm 19.5 20.5 16.9 85 1.6 NNE 7 9 4 5 1017.3 - 0.0
16/11:00pm 19.9 21.6 17.1 84 1.7 NNE 4 9 2 5 1017.5 - 0.0
16/10:30pm 19.7 20.2 16.5 82 1.9 NE 9 11 5 6 1017.5 - 0.0
16/10:00pm 20.0 21.0 16.8 82 1.9 NNE 7 9 4 5 1017.5 - 0.0
16/09:30pm 19.6 20.5 16.6 83 1.8 N 7 7 4 4 1017.5 - 0.0
16/09:00pm 20.0 20.7 16.2 79 2.3 NE 7 11 4 6 1017.5 1017.3 0.0
16/08:30pm 20.0 20.4 16.2 79 2.3 NE 9 11 5 6 1017.2 - 0.0
16/08:00pm 20.2 20.9 16.0 77 2.5 NE 7 9 4 5 1016.8 - 0.0
16/07:30pm 20.5 20.8 16.1 76 2.6 NE 9 15 5 8 1016.5 - 0.0
16/07:00pm 20.8 19.6 16.2 75 2.8 E 17 20 9 11 1016.0 - 0.0
16/06:30pm 20.9 19.2 16.3 75 2.8 E 20 22 11 12 1015.6 - 0.0
16/06:00pm 20.9 19.2 16.3 75 2.8 E 20 26 11 14 1015.2 1015.0 0.0
16/05:30pm 21.2 19.2 16.4 74 2.9 E 22 26 12 14 1015.0 - 0.0
16/05:00pm 21.4 19.2 15.9 71 3.3 E 22 26 12 14 1015.0 - 0.0
16/04:30pm 21.6 19.7 16.6 73 3.0 E 22 26 12 14 1014.9 - 0.0
16/04:00pm 21.7 19.1 16.0 70 3.4 E 24 28 13 15 1014.9 - 0.0
16/03:30pm 22.2 19.8 15.5 66 4.0 E 22 26 12 14 1015.0 - 0.0
16/03:00pm 22.5 20.2 15.6 65 4.1 E 22 26 12 14 1015.1 1014.9 0.0
16/02:30pm 22.8 21.2 16.1 66 4.1 E 19 24 10 13 1015.4 - 0.0
16/02:00pm 23.1 22.5 15.7 63 4.5 ESE 13 17 7 9 1015.8 - 0.0
16/01:30pm 23.7 23.2 17.0 66 4.1 SSE 15 20 8 11 1016.2 - 0.0
16/01:00pm 23.8 23.4 17.1 66 4.1 SE 15 19 8 10 1016.5 - 0.0
16/12:30pm 23.2 21.9 16.7 67 4.0 SSE 19 22 10 12 1016.9 - 0.0
16/12:00pm 23.0 21.7 16.8 68 3.8 SSE 19 22 10 12 1017.3 1017.1 0.0
16/11:30am 23.1 21.7 17.1 69 3.7 SSE 20 26 11 14 1017.7 - 0.0
16/11:01am 22.5 20.8 16.3 68 3.8 SSE 20 26 11 14 1018.2 - 0.0
16/11:00am 22.8 21.2 16.6 68 3.8 SSE 20 26 11 14 1018.2 - 0.0
16/10:30am 22.6 21.2 17.1 71 3.4 SSE 20 26 11 14 1018.4 - 0.0
16/10:00am 23.2 22.6 17.6 71 3.5 S 17 22 9 12 1018.6 - 0.0
16/09:30am 21.6 20.0 16.6 73 3.0 SSE 20 28 11 15 1018.7 - 0.0
16/09:24am 22.4 21.0 17.1 72 3.3 SSE 20 26 11 14 1018.7 - 0.0
16/09:18am 22.1 20.9 17.0 73 3.1 SSE 19 26 10 14 1018.7 - 0.0
16/09:07am 21.7 20.4 16.9 74 2.9 SSE 19 24 10 13 1018.7 - 0.0
16/09:00am 22.7 22.2 17.8 74 3.0 SSE 17 24 9 13 1018.7 1018.5 0.0
16/08:30am 21.5 20.4 17.3 77 2.6 SSE 19 24 10 13 1018.7 - 0.0
16/08:00am 21.4 20.2 17.0 76 2.7 SSE 19 24 10 13 1018.6 - 0.0
16/07:30am 20.6 19.3 16.8 79 2.3 SSE 19 24 10 13 1018.2 - 0.0
16/07:00am 20.3 19.1 17.5 84 1.7 SSE 20 24 11 13 1017.9 - 0.0
16/06:30am 19.5 19.1 17.1 86 1.5 S 15 17 8 9 1017.3 - 0.0
16/06:26am 19.5 19.2 17.3 87 1.3 S 15 17 8 9 1017.2 - 0.0
16/06:00am 19.4 19.0 17.2 87 1.3 S 15 17 8 9 1017.1 1016.9 0.0
16/05:30am 19.6 19.4 17.6 88 1.2 S 15 17 8 9 1016.9 - 0.0
16/05:00am 19.6 19.8 17.6 88 1.2 S 13 15 7 8 1016.8 - 0.0
16/04:34am 19.6 19.4 17.6 88 1.2 S 15 19 8 10 1016.7 - 0.0
16/04:30am 19.7 19.8 17.5 87 1.3 S 13 19 7 10 1016.7 - 0.0
16/04:29am 19.7 19.8 17.5 87 1.3 S 13 19 7 10 1016.6 - 0.0
16/04:19am 19.7 19.8 16.5 82 1.9 SSE 11 15 6 8 1016.5 - 0.0
16/04:00am 19.6 20.2 16.8 84 1.7 SSE 9 13 5 7 1016.3 - 0.0
16/03:41am 19.6 20.2 16.8 84 1.7 SSE 9 13 5 7 1016.3 - 0.0
16/03:30am 19.7 20.3 16.9 84 1.7 SE 9 13 5 7 1016.3 - 0.0
16/03:00am 19.7 19.6 16.9 84 1.7 SE 13 15 7 8 1016.4 1016.2 0.0
16/02:34am 19.7 19.6 16.9 84 1.7 SSE 13 15 7 8 1016.4 - 0.0
16/02:30am 19.5 19.3 16.7 84 1.7 SSE 13 17 7 9 1016.4 - 0.0
16/02:00am 19.8 19.7 17.0 84 1.7 SE 13 17 7 9 1016.5 - 0.0
16/01:30am 19.8 19.8 17.2 85 1.6 SE 13 17 7 9 1016.7 - 0.0
16/01:00am 19.9 19.8 16.9 83 1.8 ESE 13 17 7 9 1016.9 - 0.0
16/12:30am 20.1 19.4 16.5 80 2.2 ESE 15 17 8 9 1016.9 - 0.0
16/12:00am 20.2 19.3 16.8 81 2.1 SE 17 20 9 11 1017.1 1016.9 0.0
 
Date/Time
EST
Temp
°C
App
Temp
°C
Dew
Point
Rel
Hum
%
Delta-T
°C
Wind Press
QNH
hPa
Press
MSL
hPa
Rain
since 9 am
mm
Dir
 
Spd
km/h
Gust
km/h
Spd
kts
Gust
kts
15/11:30pm 20.5 19.2 16.9 80 2.2 ESE 19 24 10 13 1017.2 - 0.0
15/11:00pm 20.6 19.2 17.0 80 2.2 ESE 20 26 11 14 1017.3 - 0.0
15/10:30pm 20.6 18.7 16.8 79 2.3 ESE 22 28 12 15 1017.3 - 0.0
15/10:00pm 20.7 18.4 16.7 78 2.4 ESE 24 30 13 16 1017.4 - 0.0
15/09:30pm 20.6 18.7 16.8 79 2.3 ESE 22 28 12 15 1017.4 - 0.0
15/09:00pm 20.6 18.7 16.6 78 2.4 ESE 22 28 12 15 1017.4 1017.2 0.0
15/08:30pm 20.6 18.3 16.6 78 2.4 ESE 24 28 13 15 1017.2 - 0.0
15/08:00pm 20.7 17.7 16.7 78 2.4 ESE 28 33 15 18 1017.1 - 0.0
15/07:30pm 20.8 17.3 16.6 77 2.5 ESE 30 35 16 19 1016.7 - 0.0
15/07:00pm 20.9 17.0 16.5 76 2.7 ESE 32 37 17 20 1016.3 - 0.0
15/06:30pm 21.0 16.7 16.8 77 2.6 ESE 35 39 19 21 1016.1 - 0.0
15/06:00pm 20.9 16.9 16.3 75 2.8 ESE 32 35 17 19 1015.9 1015.7 0.0
15/05:30pm 21.2 18.2 16.8 76 2.7 ESE 28 32 15 17 1015.7 - 0.0
15/05:00pm 21.4 18.7 16.6 74 2.9 ESE 26 32 14 17 1015.7 - 0.0
15/04:30pm 21.8 19.1 16.5 72 3.2 ESE 26 30 14 16 1015.5 - 0.0
15/04:00pm 22.0 19.6 17.4 75 2.8 SE 26 30 14 16 1015.3 - 0.0
15/03:30pm 22.4 19.9 17.1 72 3.3 SE 26 30 14 16 1015.4 - 0.0
15/03:00pm 22.7 20.2 17.2 71 3.4 ESE 26 30 14 16 1015.4 1015.2 0.0
15/02:30pm 23.1 20.3 17.3 70 3.6 ESE 28 32 15 17 1015.7 - 0.0
15/02:00pm 23.3 20.9 17.3 69 3.7 SE 26 32 14 17 1015.9 - 0.0
15/01:30pm 23.8 21.5 17.5 68 3.9 ESE 26 32 14 17 1016.2 - 0.0
15/01:00pm 23.8 21.3 17.1 66 4.1 ESE 26 30 14 16 1016.3 - 0.0
15/12:30pm 24.0 21.7 17.7 68 3.9 SE 26 30 14 16 1016.7 - 0.0
15/12:00pm 24.5 21.1 17.7 66 4.3 SE 32 35 17 19 1016.9 1016.7 0.0
15/11:30am 24.2 20.8 18.2 69 3.8 SE 33 37 18 20 1017.3 - 0.0
15/11:00am 22.4 18.4 17.5 74 3.0 SSE 35 39 19 21 1017.7 - 0.0
15/10:30am 24.2 21.4 19.1 73 3.3 SE 32 39 17 21 1018.2 - 0.0
15/10:27am 23.3 20.0 18.0 72 3.3 SSE 32 37 17 20 1018.2 - 0.0
15/10:09am 22.5 19.3 18.5 78 2.5 SSE 33 41 18 22 1018.4 - 0.0
15/10:00am 22.5 19.4 18.5 78 2.5 SSE 32 37 17 20 1018.6 - 0.0
15/09:30am 21.5 18.7 18.1 81 2.1 SSE 30 37 16 20 1018.8 - 0.0
15/09:00am 22.8 19.8 17.7 73 3.2 SE 30 35 16 19 1018.7 1018.5 0.0
15/08:30am 22.1 19.7 18.3 79 2.4 SSE 28 33 15 18 1018.8 - 0.0
15/08:00am 21.6 18.2 17.6 78 2.5 SSE 32 35 17 19 1018.6 - 0.0
15/07:30am 22.4 19.0 17.8 75 2.9 SE 32 37 17 20 1018.3 - 0.0
15/07:00am 21.1 17.1 16.7 76 2.7 SE 33 37 18 20 1018.0 - 0.0
15/06:30am 20.7 17.4 16.9 79 2.3 SE 30 35 16 19 1017.8 - 0.0
15/06:00am 20.5 17.6 17.1 81 2.1 SE 28 30 15 16 1017.4 1017.2 0.0
15/05:30am 20.6 17.8 17.2 81 2.1 SE 28 33 15 18 1017.3 - 0.0
15/05:00am 20.6 17.0 17.2 81 2.1 SE 32 35 17 19 1017.1 - 0.0
15/04:30am 20.6 17.5 17.4 82 2.0 SE 30 33 16 18 1016.9 - 0.0
15/04:00am 20.6 17.8 17.2 81 2.1 SE 28 33 15 18 1016.8 - 0.0
15/03:30am 20.6 17.8 17.4 82 2.0 SE 28 33 15 18 1016.8 - 0.0
15/03:00am 20.6 17.5 17.4 82 2.0 SE 30 37 16 20 1016.9 1016.7 0.0
15/02:30am 20.6 17.3 17.0 80 2.2 SE 30 37 16 20 1016.9 - 0.0
15/02:22am 20.7 17.3 17.7 83 1.9 SE 32 43 17 23 1016.9 - 0.0
15/02:00am 20.7 17.2 17.5 82 2.0 SE 32 35 17 19 1017.0 - 0.0
15/01:30am 20.6 17.4 17.2 81 2.1 SE 30 35 16 19 1017.4 - 0.0
15/01:25am 20.6 17.0 17.2 81 2.1 SE 32 39 17 21 1017.5 - 0.0
15/01:00am 20.6 17.0 17.2 81 2.1 SE 32 37 17 20 1017.7 - 0.0
15/12:46am 20.8 17.4 17.8 83 1.9 SE 32 39 17 21 1017.8 - 0.0
15/12:30am 20.8 16.8 17.6 82 2.0 SE 35 41 19 22 1017.7 - 0.0
15/12:27am 20.7 16.6 17.3 81 2.1 SE 35 41 19 22 1017.7 - 0.0
15/12:00am 21.0 17.5 17.8 82 2.0 SE 33 41 18 22 1018.1 1017.9 0.0
 
Date/Time
EST
Temp
°C
App
Temp
°C
Dew
Point
Rel
Hum
%
Delta-T
°C
Wind Press
QNH
hPa
Press
MSL
hPa
Rain
since 9 am
mm
Dir
 
Spd
km/h
Gust
km/h
Spd
kts
Gust
kts
14/11:34pm 20.9 16.3 17.1 79 2.3 SE 37 44 20 24 1018.2 - 0.0
14/11:30pm 21.0 16.4 17.2 79 2.3 SE 37 44 20 24 1018.4 - 0.0
14/11:18pm 20.9 17.4 17.5 81 2.1 SE 32 37 17 20 1018.4 - 0.0
14/11:00pm 21.0 16.4 17.2 79 2.3 SE 37 44 20 24 1018.4 - 0.0
14/10:30pm 21.3 16.2 16.7 75 2.8 ESE 39 44 21 24 1018.2 - 0.0
14/10:00pm 21.2 17.7 16.4 74 2.9 SE 30 33 16 18 1018.2 - 0.0
14/09:30pm 21.2 16.9 16.8 76 2.7 SE 35 43 19 23 1018.1 - 0.0

Other Formats:

Comma delimited format used in spreadsheet applications
http://www.bom.gov.au/fwo/IDQ60801/IDQ60801.94368.axf

JavaScript Object Notation format (JSON) in row-major order
http://www.bom.gov.au/fwo/IDQ60801/IDQ60801.94368.json